sensor_id;sensor_type;location;lat;lon;timestamp;pressure;altitude;pressure_sealevel;temperature;humidity
48774;BME280;34576;0.000;0.000;2022-07-23T00:05:10;96691.16;;;24.05;57.38
48774;BME280;34576;0.000;0.000;2022-07-23T00:12:10;96686.44;;;24.10;56.19
48774;BME280;34576;0.000;0.000;2022-07-23T00:19:10;96672.97;;;23.93;55.93
48774;BME280;34576;0.000;0.000;2022-07-23T00:26:11;96688.03;;;23.63;57.31
48774;BME280;34576;0.000;0.000;2022-07-23T00:33:11;96715.16;;;23.92;55.75
48774;BME280;34576;0.000;0.000;2022-07-23T00:40:12;96682.78;;;23.89;56.03
48774;BME280;34576;0.000;0.000;2022-07-23T00:47:12;96677.34;;;23.80;58.71
48774;BME280;34576;0.000;0.000;2022-07-23T00:54:13;96649.16;;;23.60;61.35
48774;BME280;34576;0.000;0.000;2022-07-23T01:01:14;96641.25;;;23.37;62.11
48774;BME280;34576;0.000;0.000;2022-07-23T01:08:14;96642.03;;;23.38;61.24
48774;BME280;34576;0.000;0.000;2022-07-23T01:15:16;96680.63;;;23.59;60.81
48774;BME280;34576;0.000;0.000;2022-07-23T01:22:18;96654.19;;;23.44;62.18
48774;BME280;34576;0.000;0.000;2022-07-23T01:29:18;96616.03;;;23.65;59.76
48774;BME280;34576;0.000;0.000;2022-07-23T01:36:21;96625.06;;;23.77;58.22
48774;BME280;34576;0.000;0.000;2022-07-23T01:43:22;96609.69;;;23.43;57.35
48774;BME280;34576;0.000;0.000;2022-07-23T01:50:22;96633.22;;;23.46;57.94
48774;BME280;34576;0.000;0.000;2022-07-23T01:57:35;96626.13;;;23.59;58.69
48774;BME280;34576;0.000;0.000;2022-07-23T02:04:35;96630.88;;;23.62;57.82
48774;BME280;34576;0.000;0.000;2022-07-23T02:11:36;96634.81;;;23.56;58.97
48774;BME280;34576;0.000;0.000;2022-07-23T02:18:36;96629.34;;;23.30;57.64
48774;BME280;34576;0.000;0.000;2022-07-23T02:25:37;96635.53;;;23.30;58.58
48774;BME280;34576;0.000;0.000;2022-07-23T02:32:37;96633.84;;;23.43;56.81
48774;BME280;34576;0.000;0.000;2022-07-23T02:39:39;96667.78;;;23.48;54.55
48774;BME280;34576;0.000;0.000;2022-07-23T02:46:39;96640.41;;;23.28;57.25
48774;BME280;34576;0.000;0.000;2022-07-23T02:53:40;96660.59;;;23.25;58.23
48774;BME280;34576;0.000;0.000;2022-07-23T03:00:42;96676.69;;;23.25;58.87
48774;BME280;34576;0.000;0.000;2022-07-23T03:07:45;96667.09;;;22.70;63.12
48774;BME280;34576;0.000;0.000;2022-07-23T03:14:45;96710.81;;;23.02;61.76
48774;BME280;34576;0.000;0.000;2022-07-23T03:21:46;96737.22;;;22.86;62.04
48774;BME280;34576;0.000;0.000;2022-07-23T03:28:47;96728.97;;;23.05;62.18
48774;BME280;34576;0.000;0.000;2022-07-23T03:35:47;96725.84;;;22.58;64.40
48774;BME280;34576;0.000;0.000;2022-07-23T03:42:56;96771.75;;;23.02;62.09
48774;BME280;34576;0.000;0.000;2022-07-23T03:49:56;96777.56;;;22.81;63.02
48774;BME280;34576;0.000;0.000;2022-07-23T03:56:57;96743.53;;;22.45;64.36
48774;BME280;34576;0.000;0.000;2022-07-23T04:03:57;96756.25;;;22.76;62.49
48774;BME280;34576;0.000;0.000;2022-07-23T04:10:58;96734.28;;;22.51;63.85
48774;BME280;34576;0.000;0.000;2022-07-23T04:17:59;96742.91;;;22.85;60.78
48774;BME280;34576;0.000;0.000;2022-07-23T04:25:08;96737.66;;;23.02;58.07
48774;BME280;34576;0.000;0.000;2022-07-23T04:32:08;96737.66;;;23.02;56.75
48774;BME280;34576;0.000;0.000;2022-07-23T04:39:09;96746.94;;;23.19;55.80
48774;BME280;34576;0.000;0.000;2022-07-23T04:46:10;96745.19;;;23.23;55.72
48774;BME280;34576;0.000;0.000;2022-07-23T04:53:17;96750.78;;;23.75;55.40
48774;BME280;34576;0.000;0.000;2022-07-23T05:00:20;96743.94;;;23.92;56.16
48774;BME280;34576;0.000;0.000;2022-07-23T05:07:21;96758.16;;;24.01;56.52
48774;BME280;34576;0.000;0.000;2022-07-23T05:14:21;96761.50;;;24.07;56.18
48774;BME280;34576;0.000;0.000;2022-07-23T05:21:22;96754.56;;;24.15;56.96
48774;BME280;34576;0.000;0.000;2022-07-23T05:28:23;96745.88;;;24.18;57.27
48774;BME280;34576;0.000;0.000;2022-07-23T05:35:26;96748.44;;;24.23;57.38
48774;BME280;34576;0.000;0.000;2022-07-23T05:42:46;96747.78;;;24.26;57.91
48774;BME280;34576;0.000;0.000;2022-07-23T05:49:46;96738.00;;;24.30;57.95
48774;BME280;34576;0.000;0.000;2022-07-23T05:56:58;96750.00;;;24.33;59.01
48774;BME280;34576;0.000;0.000;2022-07-23T06:03:59;96768.19;;;24.36;58.86
48774;BME280;34576;0.000;0.000;2022-07-23T06:11:06;96781.34;;;24.37;58.74
48774;BME280;34576;0.000;0.000;2022-07-23T06:18:06;96778.44;;;24.07;57.60
48774;BME280;34576;0.000;0.000;2022-07-23T06:25:07;96777.94;;;24.14;57.15
48774;BME280;34576;0.000;0.000;2022-07-23T06:32:07;96774.31;;;23.70;58.10
48774;BME280;34576;0.000;0.000;2022-07-23T06:39:08;96777.66;;;23.75;58.69
48774;BME280;34576;0.000;0.000;2022-07-23T06:46:08;96785.09;;;23.78;58.21
48774;BME280;34576;0.000;0.000;2022-07-23T06:53:08;96779.16;;;23.90;58.75
48774;BME280;34576;0.000;0.000;2022-07-23T07:00:09;96789.91;;;23.90;58.97
48774;BME280;34576;0.000;0.000;2022-07-23T07:07:09;96798.63;;;23.96;59.52
48774;BME280;34576;0.000;0.000;2022-07-23T07:14:09;96800.25;;;24.15;57.76
48774;BME280;34576;0.000;0.000;2022-07-23T07:21:10;96808.00;;;24.07;57.60
48774;BME280;34576;0.000;0.000;2022-07-23T07:28:10;96816.50;;;24.09;56.99
48774;BME280;34576;0.000;0.000;2022-07-23T07:35:10;96830.44;;;24.11;56.68
48774;BME280;34576;0.000;0.000;2022-07-23T07:42:11;96847.66;;;24.10;56.79
48774;BME280;34576;0.000;0.000;2022-07-23T07:49:11;96849.56;;;24.10;57.42
48774;BME280;34576;0.000;0.000;2022-07-23T07:56:11;96843.59;;;24.22;56.99
48774;BME280;34576;0.000;0.000;2022-07-23T08:03:11;96846.56;;;24.11;57.71
48774;BME280;34576;0.000;0.000;2022-07-23T08:10:12;96859.41;;;24.23;58.03
48774;BME280;34576;0.000;0.000;2022-07-23T08:17:12;96857.69;;;24.27;57.76
48774;BME280;34576;0.000;0.000;2022-07-23T08:24:12;96849.31;;;24.29;58.62
48774;BME280;34576;0.000;0.000;2022-07-23T08:31:13;96861.03;;;24.33;58.04
48774;BME280;34576;0.000;0.000;2022-07-23T08:38:16;96853.59;;;24.30;59.05
48774;BME280;34576;0.000;0.000;2022-07-23T08:45:18;96863.84;;;24.28;59.20
48774;BME280;34576;0.000;0.000;2022-07-23T08:52:19;96860.38;;;24.36;58.19
48774;BME280;34576;0.000;0.000;2022-07-23T08:59:19;96865.13;;;24.39;57.66
48774;BME280;34576;0.000;0.000;2022-07-23T09:06:19;96855.34;;;24.43;56.71
48774;BME280;34576;0.000;0.000;2022-07-23T09:13:28;96856.94;;;24.44;56.66
48774;BME280;34576;0.000;0.000;2022-07-23T09:20:29;96845.09;;;24.54;54.71
48774;BME280;34576;0.000;0.000;2022-07-23T09:34:48;96859.31;;;24.55;52.85
48774;BME280;34576;0.000;0.000;2022-07-23T09:41:49;96848.88;;;24.53;52.93
48774;BME280;34576;0.000;0.000;2022-07-23T09:48:56;96855.22;;;24.49;53.56
48774;BME280;34576;0.000;0.000;2022-07-23T09:55:56;96861.69;;;24.47;56.33
48774;BME280;34576;0.000;0.000;2022-07-23T10:02:58;96852.53;;;24.49;55.84
48774;BME280;34576;0.000;0.000;2022-07-23T10:10:02;96859.31;;;24.55;55.03
48774;BME280;34576;0.000;0.000;2022-07-23T10:17:22;96872.31;;;24.53;55.70
48774;BME280;34576;0.000;0.000;2022-07-23T10:31:47;96885.75;;;24.53;56.59
48774;BME280;34576;0.000;0.000;2022-07-23T10:38:58;96869.75;;;24.56;57.04
48774;BME280;34576;0.000;0.000;2022-07-23T11:00:50;96882.91;;;24.58;55.25
48774;BME280;34576;0.000;0.000;2022-07-23T11:15:05;96888.81;;;24.60;55.95
48774;BME280;34576;0.000;0.000;2022-07-23T11:22:06;96887.69;;;24.61;55.63
48774;BME280;34576;0.000;0.000;2022-07-23T11:36:48;96874.09;;;24.84;55.31
48774;BME280;34576;0.000;0.000;2022-07-23T11:43:48;96882.34;;;24.78;54.66
48774;BME280;34576;0.000;0.000;2022-07-23T11:50:49;96874.75;;;24.80;54.96
48774;BME280;34576;0.000;0.000;2022-07-23T11:57:50;96876.66;;;24.80;54.72
48774;BME280;34576;0.000;0.000;2022-07-23T12:04:51;96867.00;;;24.88;54.59
48774;BME280;34576;0.000;0.000;2022-07-23T12:12:01;96869.22;;;24.86;54.75
48774;BME280;34576;0.000;0.000;2022-07-23T12:19:01;96873.78;;;24.85;54.67
48774;BME280;34576;0.000;0.000;2022-07-23T12:26:02;96858.44;;;24.86;54.58
48774;BME280;34576;0.000;0.000;2022-07-23T12:33:03;96865.06;;;24.88;54.64
48774;BME280;34576;0.000;0.000;2022-07-23T12:47:20;96841.81;;;24.92;55.14
48774;BME280;34576;0.000;0.000;2022-07-23T12:54:26;96853.84;;;24.95;55.49
48774;BME280;34576;0.000;0.000;2022-07-23T13:01:27;96857.03;;;24.97;55.33
48774;BME280;34576;0.000;0.000;2022-07-23T13:08:29;96855.59;;;24.99;55.62
48774;BME280;34576;0.000;0.000;2022-07-23T13:15:30;96842.94;;;25.00;55.86
48774;BME280;34576;0.000;0.000;2022-07-23T13:22:30;96843.06;;;25.30;55.45
48774;BME280;34576;0.000;0.000;2022-07-23T13:29:30;96842.75;;;25.05;56.65
48774;BME280;34576;0.000;0.000;2022-07-23T13:36:31;96825.06;;;25.04;56.81
48774;BME280;34576;0.000;0.000;2022-07-23T13:43:31;96832.47;;;25.07;56.89
48774;BME280;34576;0.000;0.000;2022-07-23T13:50:32;96837.88;;;25.07;56.89
48774;BME280;34576;0.000;0.000;2022-07-23T13:57:33;96837.56;;;25.09;57.40
48774;BME280;34576;0.000;0.000;2022-07-23T14:04:33;96829.63;;;25.12;57.21
48774;BME280;34576;0.000;0.000;2022-07-23T14:11:34;96835.16;;;25.16;57.53
48774;BME280;34576;0.000;0.000;2022-07-23T14:18:34;96838.63;;;25.16;57.05
48774;BME280;34576;0.000;0.000;2022-07-23T14:25:34;96828.34;;;25.19;56.83
48774;BME280;34576;0.000;0.000;2022-07-23T14:32:36;96828.69;;;25.17;57.06
48774;BME280;34576;0.000;0.000;2022-07-23T14:39:36;96824.25;;;25.21;57.20
48774;BME280;34576;0.000;0.000;2022-07-23T14:46:36;96815.34;;;25.21;56.31
48774;BME280;34576;0.000;0.000;2022-07-23T14:53:37;96822.34;;;25.22;56.36
48774;BME280;34576;0.000;0.000;2022-07-23T15:00:37;96826.63;;;25.23;55.90
48774;BME280;34576;0.000;0.000;2022-07-23T15:07:37;96829.31;;;25.23;56.47
48774;BME280;34576;0.000;0.000;2022-07-23T15:14:37;96828.19;;;25.24;56.32
48774;BME280;34576;0.000;0.000;2022-07-23T15:21:38;96836.25;;;25.24;55.87
48774;BME280;34576;0.000;0.000;2022-07-23T15:28:38;96835.16;;;25.25;56.60
48774;BME280;34576;0.000;0.000;2022-07-23T15:35:38;96834.06;;;25.26;56.04
48774;BME280;34576;0.000;0.000;2022-07-23T15:42:39;96834.06;;;25.26;56.17
48774;BME280;34576;0.000;0.000;2022-07-23T15:49:39;96837.19;;;25.28;55.92
48774;BME280;34576;0.000;0.000;2022-07-23T15:56:39;96841.81;;;25.27;56.09
48774;BME280;34576;0.000;0.000;2022-07-23T16:03:39;96835.63;;;25.27;56.06
48774;BME280;34576;0.000;0.000;2022-07-23T16:10:40;96826.44;;;25.28;56.19
48774;BME280;34576;0.000;0.000;2022-07-23T16:17:40;96830.25;;;25.27;55.74
48774;BME280;34576;0.000;0.000;2022-07-23T16:24:41;96832.94;;;25.27;56.02
48774;BME280;34576;0.000;0.000;2022-07-23T16:31:41;96833.72;;;25.27;55.92
48774;BME280;34576;0.000;0.000;2022-07-23T16:38:42;96826.44;;;25.28;55.57
48774;BME280;34576;0.000;0.000;2022-07-23T16:45:43;96827.56;;;25.27;55.46
48774;BME280;34576;0.000;0.000;2022-07-23T16:52:43;96828.34;;;25.27;54.79
48774;BME280;34576;0.000;0.000;2022-07-23T16:59:44;96825.97;;;25.26;54.19
48774;BME280;34576;0.000;0.000;2022-07-23T17:06:44;96826.75;;;25.26;54.57
48774;BME280;34576;0.000;0.000;2022-07-23T17:13:44;96828.66;;;25.26;54.59
48774;BME280;34576;0.000;0.000;2022-07-23T17:20:44;96824.38;;;25.25;54.04
48774;BME280;34576;0.000;0.000;2022-07-23T17:27:45;96825.97;;;25.26;54.05
48774;BME280;34576;0.000;0.000;2022-07-23T17:34:46;96827.56;;;25.27;53.83
48774;BME280;34576;0.000;0.000;2022-07-23T17:41:46;96827.84;;;25.25;53.81
48774;BME280;34576;0.000;0.000;2022-07-23T17:48:47;96835.16;;;25.25;53.06
48774;BME280;34576;0.000;0.000;2022-07-23T17:55:47;96842.13;;;25.26;53.48
48774;BME280;34576;0.000;0.000;2022-07-23T18:02:47;96845.91;;;25.25;52.66
48774;BME280;34576;0.000;0.000;2022-07-23T18:09:48;96850.53;;;25.24;53.55
48774;BME280;34576;0.000;0.000;2022-07-23T18:16:48;96856.69;;;25.25;54.19
48774;BME280;34576;0.000;0.000;2022-07-23T18:23:49;96862.06;;;25.25;54.87
48774;BME280;34576;0.000;0.000;2022-07-23T18:30:50;96874.88;;;25.28;54.55
48774;BME280;34576;0.000;0.000;2022-07-23T18:37:50;96880.59;;;25.26;54.51
48774;BME280;34576;0.000;0.000;2022-07-23T18:44:50;96880.59;;;25.26;54.85
48774;BME280;34576;0.000;0.000;2022-07-23T18:51:51;96886.94;;;25.22;55.83
48774;BME280;34576;0.000;0.000;2022-07-23T18:58:51;96904.19;;;25.21;55.26
48774;BME280;34576;0.000;0.000;2022-07-23T19:05:51;96914.97;;;25.21;55.51
48774;BME280;34576;0.000;0.000;2022-07-23T19:12:51;96924.31;;;25.23;55.20
48774;BME280;34576;0.000;0.000;2022-07-23T19:19:52;96933.97;;;25.24;55.00
48774;BME280;34576;0.000;0.000;2022-07-23T19:26:52;96946.03;;;25.27;54.94
48774;BME280;34576;0.000;0.000;2022-07-23T19:33:52;96955.91;;;24.83;50.51
48774;BME280;34576;0.000;0.000;2022-07-23T19:40:52;96962.91;;;24.43;52.22
48774;BME280;34576;0.000;0.000;2022-07-23T19:47:53;96978.50;;;24.33;53.83
48774;BME280;34576;0.000;0.000;2022-07-23T19:54:53;96986.16;;;24.17;53.79
48774;BME280;34576;0.000;0.000;2022-07-23T20:01:53;97001.16;;;24.40;52.75
48774;BME280;34576;0.000;0.000;2022-07-23T20:08:54;97007.06;;;24.20;53.16
48774;BME280;34576;0.000;0.000;2022-07-23T20:15:54;97016.47;;;24.08;53.89
48774;BME280;34576;0.000;0.000;2022-07-23T20:22:54;97018.06;;;24.09;53.76
48774;BME280;34576;0.000;0.000;2022-07-23T20:29:55;97023.03;;;23.57;55.06
48774;BME280;34576;0.000;0.000;2022-07-23T20:36:55;97025.41;;;23.58;55.23
48774;BME280;34576;0.000;0.000;2022-07-23T20:43:55;97029.84;;;23.40;55.73
48774;BME280;34576;0.000;0.000;2022-07-23T20:50:56;97034.91;;;23.42;55.42
48774;BME280;34576;0.000;0.000;2022-07-23T20:57:56;97037.13;;;23.26;55.75
48774;BME280;34576;0.000;0.000;2022-07-23T21:04:56;97037.53;;;23.19;56.15
48774;BME280;34576;0.000;0.000;2022-07-23T21:11:56;97034.22;;;23.08;56.14
48774;BME280;34576;0.000;0.000;2022-07-23T21:18:57;97041.59;;;23.17;55.80
48774;BME280;34576;0.000;0.000;2022-07-23T21:25:57;97031.66;;;23.03;56.27
48774;BME280;34576;0.000;0.000;2022-07-23T21:32:58;97044.88;;;22.86;56.45
48774;BME280;34576;0.000;0.000;2022-07-23T21:39:58;97049.34;;;22.90;56.51
48774;BME280;34576;0.000;0.000;2022-07-23T21:46:59;97037.94;;;22.85;56.52
48774;BME280;34576;0.000;0.000;2022-07-23T21:53:59;97044.78;;;22.77;56.80
48774;BME280;34576;0.000;0.000;2022-07-23T22:00:59;97037.41;;;22.55;57.69
48774;BME280;34576;0.000;0.000;2022-07-23T22:07:59;97044.72;;;22.35;57.86
48774;BME280;34576;0.000;0.000;2022-07-23T22:15:00;97042.69;;;22.27;58.40
48774;BME280;34576;0.000;0.000;2022-07-23T22:22:00;97050.72;;;22.46;57.65
48774;BME280;34576;0.000;0.000;2022-07-23T22:29:00;97046.53;;;22.21;58.37
48774;BME280;34576;0.000;0.000;2022-07-23T22:36:01;97046.84;;;22.19;58.33
48774;BME280;34576;0.000;0.000;2022-07-23T22:43:01;97050.13;;;22.16;58.15
48774;BME280;34576;0.000;0.000;2022-07-23T22:50:02;97051.72;;;21.98;58.78
48774;BME280;34576;0.000;0.000;2022-07-23T22:57:02;97044.94;;;21.87;59.22
48774;BME280;34576;0.000;0.000;2022-07-23T23:04:04;97049.72;;;21.52;60.35
48774;BME280;34576;0.000;0.000;2022-07-23T23:11:04;97050.13;;;21.40;61.03
48774;BME280;34576;0.000;0.000;2022-07-23T23:18:04;97053.81;;;21.44;60.92
48774;BME280;34576;0.000;0.000;2022-07-23T23:25:05;97056.63;;;21.58;60.30
48774;BME280;34576;0.000;0.000;2022-07-23T23:32:06;97053.53;;;21.46;60.58
48774;BME280;34576;0.000;0.000;2022-07-23T23:39:06;97066.31;;;21.30;60.90
48774;BME280;34576;0.000;0.000;2022-07-23T23:46:06;97061.13;;;21.38;60.67
48774;BME280;34576;0.000;0.000;2022-07-23T23:53:07;97057.13;;;21.17;61.36
